createdAt,value
2023-03-30T00:00:19.157Z,26
2023-03-30T00:01:21.040Z,26.1
2023-03-30T00:02:22.947Z,26.1
2023-03-30T00:03:24.845Z,26
2023-03-30T00:04:27.654Z,26
2023-03-30T00:05:30.232Z,26
2023-03-30T00:06:32.116Z,26
2023-03-30T00:07:33.949Z,26
2023-03-30T00:08:35.800Z,26
2023-03-30T00:09:37.644Z,26
2023-03-30T00:10:39.490Z,26
2023-03-30T00:11:41.468Z,26
2023-03-30T00:12:43.226Z,26
2023-03-30T00:13:45.225Z,26
2023-03-30T00:14:47.098Z,26
2023-03-30T00:15:48.902Z,26
2023-03-30T00:16:50.847Z,26
2023-03-30T00:17:52.970Z,26
2023-03-30T00:18:54.903Z,26
2023-03-30T00:19:56.841Z,26
2023-03-30T00:20:58.974Z,26
2023-03-30T00:22:00.872Z,26
2023-03-30T00:23:02.731Z,26
2023-03-30T00:24:04.573Z,26
2023-03-30T00:25:06.452Z,26
2023-03-30T00:26:08.435Z,26
2023-03-30T00:27:10.526Z,26
2023-03-30T00:28:12.384Z,26
2023-03-30T00:29:14.282Z,26
2023-03-30T00:30:16.225Z,26
2023-03-30T00:31:18.345Z,25.9
2023-03-30T00:32:20.389Z,26
2023-03-30T00:33:30.588Z,25.9
2023-03-30T00:34:49.288Z,26
2023-03-30T00:35:51.171Z,26
2023-03-30T00:36:53.111Z,26
2023-03-30T00:37:54.944Z,26
2023-03-30T00:38:56.789Z,26
2023-03-30T00:39:58.634Z,26
2023-03-30T00:41:00.632Z,26
2023-03-30T00:42:03.575Z,26
2023-03-30T00:43:05.480Z,26
2023-03-30T00:44:07.277Z,26
2023-03-30T00:45:09.547Z,26
2023-03-30T00:46:11.506Z,26
2023-03-30T00:47:13.312Z,26
2023-03-30T00:48:15.125Z,26
2023-03-30T00:49:17.031Z,26
2023-03-30T00:50:18.861Z,26
2023-03-30T00:51:20.723Z,26
2023-03-30T00:52:22.563Z,26
2023-03-30T00:53:24.521Z,26
2023-03-30T00:54:26.371Z,25.9
2023-03-30T00:55:28.223Z,26
2023-03-30T00:56:30.176Z,26
2023-03-30T00:57:32.052Z,26
2023-03-30T00:58:33.822Z,26
2023-03-30T00:59:35.646Z,26
2023-03-30T01:00:37.490Z,26
2023-03-30T01:01:39.760Z,25.9
2023-03-30T01:02:42.280Z,25.9
2023-03-30T01:03:44.510Z,25.9
2023-03-30T01:04:46.629Z,25.9
2023-03-30T01:05:48.466Z,26
2023-03-30T01:06:50.316Z,26
2023-03-30T01:07:52.229Z,26
2023-03-30T01:08:54.154Z,26
2023-03-30T01:09:56.077Z,26
2023-03-30T01:10:57.918Z,26
2023-03-30T01:11:59.772Z,25.9
2023-03-30T01:13:01.695Z,25.9
2023-03-30T01:14:03.572Z,25.9
2023-03-30T01:15:05.423Z,26
2023-03-30T01:16:07.346Z,26
2023-03-30T01:17:09.740Z,26
2023-03-30T01:18:11.686Z,26
2023-03-30T01:19:13.677Z,26
2023-03-30T01:20:15.602Z,26
2023-03-30T01:21:17.438Z,26
2023-03-30T01:22:19.287Z,26
2023-03-30T01:23:21.144Z,26
2023-03-30T01:24:23.050Z,26
2023-03-30T01:25:25.031Z,26
2023-03-30T01:26:26.902Z,26
2023-03-30T01:27:28.705Z,26
2023-03-30T01:28:30.698Z,26
2023-03-30T01:29:32.594Z,26
2023-03-30T01:30:34.507Z,26
2023-03-30T01:31:36.448Z,25.9
2023-03-30T01:32:38.789Z,25.9
2023-03-30T01:33:40.770Z,26
2023-03-30T01:34:42.536Z,25.9
2023-03-30T01:35:44.630Z,25.9
2023-03-30T01:36:47.042Z,25.9
2023-03-30T01:37:48.915Z,25.9
2023-03-30T01:38:50.698Z,25.9
2023-03-30T01:39:52.494Z,25.9
2023-03-30T01:40:54.377Z,25.9
2023-03-30T01:41:56.316Z,25.9
2023-03-30T01:42:58.274Z,25.9
2023-03-30T01:44:00.134Z,25.9
2023-03-30T01:45:02.042Z,25.9
2023-03-30T01:46:03.941Z,25.9
2023-03-30T01:47:05.956Z,25.9
2023-03-30T01:48:08.217Z,25.9
2023-03-30T01:49:10.260Z,25.9
2023-03-30T01:50:12.119Z,25.9
2023-03-30T01:51:13.962Z,25.9
2023-03-30T01:52:15.762Z,25.9
2023-03-30T01:53:17.776Z,25.9
2023-03-30T01:54:19.518Z,25.9
2023-03-30T01:55:21.441Z,25.9
2023-03-30T01:56:23.321Z,25.9
2023-03-30T01:57:25.185Z,25.9
2023-03-30T01:58:27.431Z,25.9
2023-03-30T01:59:29.283Z,25.9
2023-03-30T02:00:31.184Z,25.9
2023-03-30T02:01:33.208Z,25.9
2023-03-30T02:02:35.509Z,25.9
2023-03-30T02:03:38.000Z,25.9
2023-03-30T02:04:40.570Z,25.9
2023-03-30T02:05:42.452Z,25.9
2023-03-30T02:06:44.449Z,25.9
2023-03-30T02:07:46.245Z,25.9
2023-03-30T02:08:48.056Z,25.9
2023-03-30T02:09:49.928Z,25.9
2023-03-30T02:10:51.774Z,25.9
2023-03-30T02:11:53.706Z,25.9
2023-03-30T02:12:55.589Z,25.9
2023-03-30T02:13:57.481Z,25.9
2023-03-30T02:14:59.374Z,25.9
2023-03-30T02:16:01.301Z,25.9
2023-03-30T02:17:03.193Z,25.9
2023-03-30T02:18:05.183Z,25.9
2023-03-30T02:19:07.361Z,25.9
2023-03-30T02:20:09.267Z,25.9
2023-03-30T02:21:11.090Z,25.9
2023-03-30T02:22:13.024Z,25.9
2023-03-30T02:23:14.744Z,25.9
2023-03-30T02:24:16.640Z,25.9
2023-03-30T02:25:18.479Z,25.9
2023-03-30T02:26:20.337Z,25.9
2023-03-30T02:27:22.234Z,25.9
2023-03-30T02:28:24.013Z,25.9
2023-03-30T02:29:25.790Z,25.9
2023-03-30T02:30:27.541Z,25.9
2023-03-30T02:31:29.528Z,25.9
2023-03-30T02:32:31.697Z,25.9
2023-03-30T02:33:33.824Z,25.9
2023-03-30T02:34:35.652Z,25.9
2023-03-30T02:35:37.499Z,25.9
2023-03-30T02:36:39.525Z,25.9
2023-03-30T02:37:41.420Z,25.9
2023-03-30T02:38:43.261Z,25.9
2023-03-30T02:39:45.104Z,25.9
2023-03-30T02:40:46.961Z,25.9
2023-03-30T02:41:48.851Z,25.9
2023-03-30T02:42:50.881Z,25.9
2023-03-30T02:43:52.637Z,25.9
2023-03-30T02:44:54.502Z,25.9
2023-03-30T02:45:56.477Z,25.9
2023-03-30T02:46:58.721Z,25.9
2023-03-30T02:48:00.714Z,25.9
2023-03-30T02:49:02.815Z,25.8
2023-03-30T02:50:04.730Z,25.8
2023-03-30T02:51:06.691Z,25.6
2023-03-30T02:52:08.538Z,25.6
2023-03-30T02:53:10.484Z,25.5
2023-03-30T02:54:12.242Z,25.4
2023-03-30T02:55:14.133Z,25.2
2023-03-30T02:56:15.955Z,25.2
2023-03-30T02:57:17.816Z,25.2
2023-03-30T02:58:19.890Z,25.1
2023-03-30T02:59:22.861Z,25.1
2023-03-30T03:00:24.779Z,25
2023-03-30T03:01:26.553Z,25
2023-03-30T03:02:28.712Z,24.9
2023-03-30T03:03:30.974Z,24.8
2023-03-30T03:04:33.691Z,24.8
2023-03-30T03:05:35.570Z,24.8
2023-03-30T03:06:37.508Z,24.8
2023-03-30T03:07:39.363Z,24.7
2023-03-30T03:08:41.304Z,24.7
2023-03-30T03:09:43.165Z,24.7
2023-03-30T03:10:45.031Z,24.8
2023-03-30T03:11:46.957Z,24.8
2023-03-30T03:12:48.819Z,24.7
2023-03-30T03:13:50.678Z,24.7
2023-03-30T03:14:52.560Z,24.6
2023-03-30T03:15:54.466Z,24.7
2023-03-30T03:16:56.391Z,24.6
2023-03-30T03:17:58.633Z,24.6
2023-03-30T03:19:00.846Z,24.7
2023-03-30T03:20:02.725Z,24.6
2023-03-30T03:21:04.889Z,24.5
2023-03-30T03:22:07.927Z,24.5
2023-03-30T03:23:09.766Z,24.5
2023-03-30T03:24:11.628Z,24.6
2023-03-30T03:25:13.460Z,24.5
2023-03-30T03:26:15.332Z,24.6
2023-03-30T03:27:17.171Z,24.5
2023-03-30T03:28:18.918Z,24.5
2023-03-30T03:29:20.880Z,24.5
2023-03-30T03:30:23.079Z,24.5
2023-03-30T03:31:24.980Z,24.5
2023-03-30T03:32:26.962Z,24.5
2023-03-30T03:33:28.996Z,24.5
2023-03-30T03:34:30.852Z,24.5
2023-03-30T03:35:32.912Z,24.5
2023-03-30T03:36:34.750Z,24.5
2023-03-30T03:37:36.623Z,24.5
2023-03-30T03:38:38.339Z,24.4
2023-03-30T03:39:40.194Z,24.3
2023-03-30T03:40:42.033Z,24.3
2023-03-30T03:41:43.908Z,24.3
2023-03-30T03:42:45.775Z,24.4
2023-03-30T03:43:47.597Z,24.5
2023-03-30T03:44:49.478Z,24.5
2023-03-30T03:45:51.308Z,24.5
2023-03-30T03:46:53.169Z,24.6
2023-03-30T03:47:55.502Z,24.6
2023-03-30T03:48:57.453Z,24.7
2023-03-30T03:49:59.219Z,24.6
2023-03-30T03:51:01.243Z,24.6
2023-03-30T03:52:04.255Z,24.7
2023-03-30T03:53:06.176Z,24.7
2023-03-30T03:54:08.046Z,24.8
2023-03-30T03:55:09.789Z,24.8
2023-03-30T03:56:11.638Z,24.8
2023-03-30T03:57:13.606Z,24.8
2023-03-30T03:58:15.970Z,24.9
2023-03-30T03:59:17.808Z,24.8
2023-03-30T04:00:19.730Z,24.8
2023-03-30T04:01:21.712Z,24.9
2023-03-30T04:02:24.122Z,24.9
2023-03-30T04:03:26.739Z,25
2023-03-30T04:04:28.534Z,25.1
2023-03-30T04:05:30.445Z,25.1
2023-03-30T04:06:32.314Z,25.1
2023-03-30T04:07:34.280Z,25.1
2023-03-30T04:08:36.197Z,25.2
2023-03-30T04:09:38.043Z,25.2
2023-03-30T04:10:39.880Z,25.2
2023-03-30T04:11:41.785Z,25.3
2023-03-30T04:12:43.608Z,25.3
2023-03-30T04:13:45.444Z,25.2
2023-03-30T04:14:47.323Z,25.1
2023-03-30T04:15:49.163Z,25.2
2023-03-30T04:16:51.007Z,25.2
2023-03-30T04:17:53.279Z,25.2
2023-03-30T04:18:55.410Z,25.2
2023-03-30T04:19:57.268Z,25.4
2023-03-30T04:20:59.014Z,25.4
2023-03-30T04:22:00.891Z,25.4
2023-03-30T04:23:02.709Z,25.4
2023-03-30T04:24:04.552Z,25.4
2023-03-30T04:25:06.357Z,25.2
2023-03-30T04:26:08.165Z,25.3
2023-03-30T04:27:10.009Z,25.3
2023-03-30T04:28:11.774Z,25.3
2023-03-30T04:29:13.606Z,25.3
2023-03-30T04:30:15.505Z,25.3
2023-03-30T04:31:17.354Z,25.4
2023-03-30T04:32:19.360Z,25.4
2023-03-30T04:33:21.511Z,25.4
2023-03-30T04:34:23.384Z,25.4
2023-03-30T04:35:25.250Z,25.4
2023-03-30T04:36:27.150Z,25.5
2023-03-30T04:37:29.115Z,25.6
2023-03-30T04:38:30.904Z,25.5
2023-03-30T04:39:32.733Z,25.4
2023-03-30T04:40:34.786Z,25.4
2023-03-30T04:41:36.627Z,25.5
2023-03-30T04:42:38.544Z,25.6
2023-03-30T04:43:40.405Z,25.6
2023-03-30T04:44:42.185Z,25.6
2023-03-30T04:45:44.038Z,25.6
2023-03-30T04:46:46.095Z,25.6
2023-03-30T04:47:48.097Z,25.6
2023-03-30T04:48:50.093Z,25.7
2023-03-30T04:49:51.939Z,25.6
2023-03-30T04:50:53.871Z,25.6
2023-03-30T04:51:55.679Z,25.6
2023-03-30T04:52:57.515Z,25.6
2023-03-30T04:53:59.349Z,25.6
2023-03-30T04:55:01.253Z,25.6
2023-03-30T04:56:03.137Z,25.7
2023-03-30T04:57:04.905Z,25.7
2023-03-30T04:58:07.008Z,25.7
2023-03-30T04:59:08.897Z,25.7
2023-03-30T05:00:10.646Z,25.7
2023-03-30T05:01:12.564Z,25.6
2023-03-30T05:02:14.743Z,25.6
2023-03-30T05:03:16.828Z,25.6
2023-03-30T05:04:24.500Z,25.6
2023-03-30T05:05:26.411Z,25.6
2023-03-30T05:06:28.301Z,25.6
2023-03-30T05:07:30.137Z,25.6
2023-03-30T05:08:32.016Z,25.6
2023-03-30T05:09:33.769Z,25.7
2023-03-30T05:10:35.675Z,25.7
2023-03-30T05:11:37.436Z,25.7
2023-03-30T05:12:39.308Z,25.7
2023-03-30T05:13:41.135Z,25.8
2023-03-30T05:14:43.086Z,25.8
2023-03-30T05:15:45.029Z,25.8
2023-03-30T05:16:46.918Z,25.8
2023-03-30T05:17:49.104Z,25.8
2023-03-30T05:18:51.674Z,25.8
2023-03-30T05:19:53.696Z,25.8
2023-03-30T05:20:55.670Z,25.8
2023-03-30T05:21:57.385Z,25.8
2023-03-30T05:22:59.180Z,25.8
2023-03-30T05:24:01.138Z,25.9
2023-03-30T05:25:02.941Z,25.9
2023-03-30T05:26:04.929Z,25.9
2023-03-30T05:27:07.011Z,26
2023-03-30T05:28:08.878Z,26
2023-03-30T05:29:10.738Z,25.9
2023-03-30T05:30:13.214Z,25.9
2023-03-30T05:31:14.901Z,26
2023-03-30T05:32:17.070Z,26
2023-03-30T05:33:18.940Z,26
2023-03-30T05:34:20.806Z,26
2023-03-30T05:35:22.650Z,26
2023-03-30T05:36:24.414Z,26
2023-03-30T05:37:26.310Z,26.1
2023-03-30T05:38:28.327Z,26.1
2023-03-30T05:39:30.455Z,26.1
2023-03-30T05:40:32.427Z,26.1
2023-03-30T05:41:34.906Z,26.1
2023-03-30T05:42:36.681Z,26
2023-03-30T05:43:38.651Z,26
2023-03-30T05:44:40.543Z,26
2023-03-30T05:45:42.391Z,26.1
2023-03-30T05:46:44.092Z,26.1
2023-03-30T05:47:46.402Z,26.1
2023-03-30T05:48:48.456Z,26.1
2023-03-30T05:49:50.378Z,26.2
2023-03-30T05:50:52.242Z,26.2
2023-03-30T05:51:53.890Z,26.1
2023-03-30T05:52:55.784Z,26.1
2023-03-30T05:53:57.804Z,26.2
2023-03-30T05:54:59.679Z,26.2
2023-03-30T05:56:01.436Z,26.1
2023-03-30T05:57:03.259Z,26.1
2023-03-30T05:58:05.396Z,26.1
2023-03-30T05:59:07.340Z,26.2
2023-03-30T06:00:09.220Z,26.1
2023-03-30T06:01:11.078Z,26.2
2023-03-30T06:02:12.959Z,26.2
2023-03-30T06:03:14.949Z,26.2
2023-03-30T06:04:17.413Z,26.2
2023-03-30T06:05:19.790Z,26.2
2023-03-30T06:06:21.633Z,26.2
2023-03-30T06:07:23.492Z,26.2
2023-03-30T06:08:25.323Z,26.2
2023-03-30T06:09:27.203Z,26.2
2023-03-30T06:10:29.080Z,26.2
2023-03-30T06:11:30.885Z,26.2
2023-03-30T06:12:32.739Z,26.2
2023-03-30T06:13:34.627Z,26.2
2023-03-30T06:14:36.356Z,26.2
2023-03-30T06:15:38.077Z,26.3
2023-03-30T06:16:39.862Z,26.3
2023-03-30T06:17:41.842Z,26.3
2023-03-30T06:18:43.921Z,26.3
2023-03-30T06:19:45.831Z,26.3
2023-03-30T06:20:47.642Z,26.3
2023-03-30T06:21:49.380Z,26.3
2023-03-30T06:22:51.142Z,26.3
2023-03-30T06:23:53.028Z,26.3
2023-03-30T06:24:54.912Z,26.3
2023-03-30T06:25:56.898Z,26.3
2023-03-30T06:26:58.740Z,26.3
2023-03-30T06:28:00.589Z,26.3
2023-03-30T06:29:02.579Z,26.3
2023-03-30T06:30:04.503Z,26.3
2023-03-30T06:31:06.596Z,26.3
2023-03-30T06:32:08.501Z,26.3
2023-03-30T06:33:11.142Z,26.3
2023-03-30T06:34:13.766Z,26.3
2023-03-30T06:35:16.049Z,26.3
2023-03-30T06:36:18.248Z,26.3
2023-03-30T06:37:20.425Z,26.4
2023-03-30T06:38:22.329Z,26.4
2023-03-30T06:39:24.079Z,26.3
2023-03-30T06:40:25.986Z,26.3
2023-03-30T06:41:28.051Z,26.2
2023-03-30T06:42:29.936Z,26.2
2023-03-30T06:43:31.745Z,26.2
2023-03-30T06:44:33.782Z,26.2
2023-03-30T06:45:35.727Z,26.1
2023-03-30T06:46:37.696Z,26.1
2023-03-30T06:47:39.652Z,26
2023-03-30T06:48:41.576Z,25.9
2023-03-30T06:49:45.885Z,26
2023-03-30T06:50:47.722Z,26
2023-03-30T06:51:49.801Z,26.1
2023-03-30T06:52:51.647Z,26.1
2023-03-30T06:53:53.313Z,26.1
2023-03-30T06:54:55.197Z,26.1
2023-03-30T06:55:57.108Z,26.2
2023-03-30T06:56:59.092Z,26.2
2023-03-30T06:58:01.230Z,26.3
2023-03-30T06:59:03.059Z,26.3
2023-03-30T07:00:04.979Z,26.3
2023-03-30T07:01:06.943Z,26.3
2023-03-30T07:02:09.106Z,26.4
2023-03-30T07:03:10.932Z,26.4
2023-03-30T07:04:13.073Z,26.4
2023-03-30T07:05:15.178Z,26.4
2023-03-30T07:06:18.143Z,26.4
2023-03-30T07:07:22.975Z,26.5
2023-03-30T07:08:24.746Z,26.5
2023-03-30T07:09:26.557Z,26.5
2023-03-30T07:10:28.375Z,26.5
2023-03-30T07:11:30.220Z,26.5
2023-03-30T07:12:32.044Z,26.5
2023-03-30T07:13:33.918Z,26.5
2023-03-30T07:14:35.711Z,26.5
2023-03-30T07:15:37.616Z,26.4
2023-03-30T07:16:39.568Z,26.4
2023-03-30T07:17:41.634Z,26.5
2023-03-30T07:18:43.735Z,26.5
2023-03-30T07:19:45.464Z,26.6
2023-03-30T07:20:47.401Z,26.6
2023-03-30T07:21:49.308Z,26.6
2023-03-30T07:22:51.181Z,26.6
2023-03-30T07:23:53.388Z,26.6
2023-03-30T07:24:55.280Z,26.6
2023-03-30T07:25:57.099Z,26.7
2023-03-30T07:26:58.949Z,26.7
2023-03-30T07:28:00.713Z,26.7
2023-03-30T07:29:02.579Z,26.7
2023-03-30T07:30:10.533Z,26.8
2023-03-30T07:31:24.318Z,26.9
2023-03-30T07:32:26.495Z,27
2023-03-30T07:33:28.720Z,26.9
2023-03-30T07:34:30.959Z,26.9
2023-03-30T07:35:32.758Z,27
2023-03-30T07:36:34.539Z,27
2023-03-30T07:37:36.286Z,27
2023-03-30T07:38:38.135Z,27
2023-03-30T07:39:40.572Z,27
2023-03-30T07:40:42.655Z,27.1
2023-03-30T07:41:44.509Z,27.1
2023-03-30T07:42:46.365Z,27.1
2023-03-30T07:43:48.237Z,27.1
2023-03-30T07:44:50.145Z,27.1
2023-03-30T07:45:52.023Z,27.1
2023-03-30T07:46:54.174Z,27.2
2023-03-30T07:47:55.981Z,27.2
2023-03-30T07:48:58.324Z,27.2
2023-03-30T07:50:00.236Z,27.3
2023-03-30T07:51:02.369Z,27.3
2023-03-30T07:52:05.379Z,27.4
2023-03-30T07:53:07.079Z,27.4
2023-03-30T07:54:08.974Z,27.4
2023-03-30T07:55:10.810Z,27.4
2023-03-30T07:56:12.690Z,27.3
2023-03-30T07:57:14.682Z,27.3
2023-03-30T07:58:16.797Z,27.3
2023-03-30T07:59:18.536Z,27.3
2023-03-30T08:00:20.471Z,27.3
2023-03-30T08:01:22.216Z,27.3
2023-03-30T08:02:23.937Z,27.4
2023-03-30T08:03:25.990Z,27.4
2023-03-30T08:04:28.553Z,27.4
2023-03-30T08:05:30.972Z,27.4
2023-03-30T08:06:32.894Z,27.4
2023-03-30T08:07:34.831Z,27.4
2023-03-30T08:08:36.627Z,27.4
2023-03-30T08:09:38.464Z,27.4
2023-03-30T08:10:40.279Z,27.5
2023-03-30T08:11:42.153Z,27.6
2023-03-30T08:12:43.908Z,27.5
2023-03-30T08:13:45.668Z,27.5
2023-03-30T08:14:47.564Z,27.5
2023-03-30T08:15:49.481Z,27.5
2023-03-30T08:16:51.310Z,27.5
2023-03-30T08:17:53.116Z,27.5
2023-03-30T08:18:55.087Z,27.5
2023-03-30T08:19:56.974Z,27.5
2023-03-30T08:20:58.814Z,27.6
2023-03-30T08:22:00.460Z,27.6
2023-03-30T08:23:02.110Z,27.6
2023-03-30T08:24:03.824Z,27.6
2023-03-30T08:25:05.705Z,27.6
2023-03-30T08:26:07.567Z,27.6
2023-03-30T08:27:09.672Z,27.7
2023-03-30T08:28:12.380Z,27.7
2023-03-30T08:29:14.338Z,27.7
2023-03-30T08:30:16.278Z,27.6
2023-03-30T08:31:18.201Z,27.6
2023-03-30T08:32:20.207Z,27.6
2023-03-30T08:33:22.024Z,27.7
2023-03-30T08:34:23.881Z,27.7
2023-03-30T08:35:25.808Z,27.7
2023-03-30T08:36:27.795Z,27.6
2023-03-30T08:37:29.455Z,27.7
2023-03-30T08:38:31.378Z,27.7
2023-03-30T08:39:33.443Z,27.7
2023-03-30T08:40:35.293Z,27.6
2023-03-30T08:41:37.145Z,27.7
2023-03-30T08:42:38.985Z,27.7
2023-03-30T08:43:40.925Z,27.6
2023-03-30T08:44:42.899Z,27.7
2023-03-30T08:45:44.969Z,27.7
2023-03-30T08:46:47.012Z,27.7
2023-03-30T08:47:48.826Z,27.7
2023-03-30T08:48:51.003Z,27.7
2023-03-30T08:49:52.844Z,27.7
2023-03-30T08:50:54.639Z,27.7
2023-03-30T08:51:56.493Z,27.7
2023-03-30T08:52:58.616Z,27.7
2023-03-30T08:54:00.574Z,27.7
2023-03-30T08:55:02.388Z,27.7
2023-03-30T08:56:04.071Z,27.8
2023-03-30T08:57:05.922Z,27.8
2023-03-30T08:58:07.914Z,27.8
2023-03-30T08:59:09.720Z,27.7
2023-03-30T09:00:11.551Z,27.8
2023-03-30T09:01:13.464Z,27.8
2023-03-30T09:02:15.636Z,27.8
2023-03-30T09:03:17.930Z,27.8
2023-03-30T09:04:19.956Z,27.8
2023-03-30T09:05:21.873Z,27.8
2023-03-30T09:06:24.479Z,27.8
2023-03-30T09:07:26.246Z,27.8
2023-03-30T09:08:28.114Z,27.8
2023-03-30T09:09:30.006Z,27.8
2023-03-30T09:10:31.828Z,27.8
2023-03-30T09:11:33.666Z,27.9
2023-03-30T09:12:35.534Z,27.9
2023-03-30T09:13:37.251Z,27.9
2023-03-30T09:14:39.514Z,27.8
2023-03-30T09:15:41.577Z,27.9
2023-03-30T09:16:43.619Z,27.9
2023-03-30T09:17:45.962Z,27.9
2023-03-30T09:18:48.049Z,27.9
2023-03-30T09:19:49.954Z,28
2023-03-30T09:20:51.845Z,28
2023-03-30T09:21:54.212Z,28
2023-03-30T09:22:56.025Z,28
2023-03-30T09:23:57.970Z,28.1
2023-03-30T09:24:59.866Z,28
2023-03-30T09:26:01.752Z,28
2023-03-30T09:27:03.649Z,28
2023-03-30T09:28:05.511Z,28
2023-03-30T09:29:07.460Z,28
2023-03-30T09:30:09.323Z,28
2023-03-30T09:31:11.192Z,28
2023-03-30T09:32:13.309Z,27.9
2023-03-30T09:33:15.611Z,27.8
2023-03-30T09:34:17.436Z,27.8
2023-03-30T09:35:19.266Z,27.9
2023-03-30T09:36:21.071Z,27.9
2023-03-30T09:37:23.243Z,27.9
2023-03-30T09:38:25.147Z,27.9
2023-03-30T09:39:27.240Z,27.9
2023-03-30T09:40:29.592Z,27.9
2023-03-30T09:41:31.670Z,28
2023-03-30T09:42:33.427Z,28
2023-03-30T09:43:35.426Z,28
2023-03-30T09:44:37.420Z,28.1
2023-03-30T09:45:39.442Z,28
2023-03-30T09:46:41.528Z,28.1
2023-03-30T09:47:43.807Z,28
2023-03-30T09:48:45.871Z,28.1
2023-03-30T09:49:47.688Z,28
2023-03-30T09:50:49.795Z,28
2023-03-30T09:51:51.386Z,28.1
2023-03-30T09:52:53.357Z,28
2023-03-30T09:53:55.252Z,28.1
2023-03-30T09:54:56.997Z,28.1
2023-03-30T09:55:58.919Z,28
2023-03-30T09:57:00.687Z,28.1
2023-03-30T09:58:02.656Z,28.1
2023-03-30T09:59:04.394Z,28.1
2023-03-30T10:00:06.372Z,28.1
2023-03-30T10:01:08.712Z,28.2
2023-03-30T10:02:10.800Z,28.2
2023-03-30T10:03:13.050Z,28.2
2023-03-30T10:04:15.376Z,28.2
2023-03-30T10:05:18.384Z,28.2
2023-03-30T10:06:20.423Z,28.3
2023-03-30T10:07:22.112Z,28.3
2023-03-30T10:08:25.188Z,28.3
2023-03-30T10:09:27.092Z,28.3
2023-03-30T10:10:29.032Z,28.2
2023-03-30T10:11:30.751Z,28.2
2023-03-30T10:12:32.656Z,28.3
2023-03-30T10:13:34.581Z,28.3
2023-03-30T10:14:36.334Z,28.3
2023-03-30T10:15:38.370Z,28.3
2023-03-30T10:16:40.274Z,28.3
2023-03-30T10:17:42.647Z,28.3
2023-03-30T10:18:44.662Z,28.3
2023-03-30T10:19:48.731Z,28.3
2023-03-30T10:21:15.239Z,28.3
2023-03-30T10:22:17.151Z,28.3
2023-03-30T10:23:19.116Z,28.3
2023-03-30T10:24:21.054Z,28.2
2023-03-30T10:25:22.918Z,28.2
2023-03-30T10:26:24.796Z,28.2
2023-03-30T10:27:26.478Z,28.2
2023-03-30T10:28:28.318Z,28.2
2023-03-30T10:29:30.224Z,28.2
2023-03-30T10:30:32.245Z,28.2
2023-03-30T10:31:34.108Z,28.2
2023-03-30T10:32:36.321Z,28.2
2023-03-30T10:33:38.331Z,28.2
2023-03-30T10:34:40.285Z,28.3
2023-03-30T10:35:42.146Z,28.3
2023-03-30T10:36:44.082Z,28.3
2023-03-30T10:37:51.364Z,28.3
2023-03-30T10:38:53.264Z,28.3
2023-03-30T10:39:55.162Z,28.3
2023-03-30T10:40:57.020Z,28.3
2023-03-30T10:42:00.106Z,28.3
2023-03-30T10:43:02.493Z,28.3
2023-03-30T10:44:05.363Z,28.3
2023-03-30T10:45:07.877Z,28.3
2023-03-30T10:46:18.608Z,28.3
2023-03-30T10:47:23.196Z,28.4
2023-03-30T10:48:25.839Z,28.4
2023-03-30T10:49:27.807Z,28.5
2023-03-30T10:50:29.663Z,28.4
2023-03-30T10:51:31.567Z,28.4
2023-03-30T10:52:33.437Z,28.4
2023-03-30T10:53:35.473Z,28.4
2023-03-30T10:54:37.746Z,28.4
2023-03-30T10:55:39.607Z,28.3
2023-03-30T10:56:41.479Z,28.3
2023-03-30T10:57:43.717Z,28.3
2023-03-30T10:58:45.626Z,28.4
2023-03-30T10:59:47.543Z,28.4
2023-03-30T11:00:49.368Z,28.4
2023-03-30T11:01:51.419Z,28.3
2023-03-30T11:02:53.388Z,28.4
2023-03-30T11:03:55.784Z,28.4
2023-03-30T11:04:58.103Z,28.5
2023-03-30T11:05:59.987Z,28.5
2023-03-30T11:07:01.881Z,28.5
2023-03-30T11:08:03.710Z,28.5
2023-03-30T11:09:05.595Z,28.5
2023-03-30T11:10:07.445Z,28.5
2023-03-30T11:11:09.211Z,28.5
2023-03-30T11:12:11.034Z,28.5
2023-03-30T11:13:12.827Z,28.5
2023-03-30T11:14:14.783Z,28.5
2023-03-30T11:15:16.695Z,28.5
2023-03-30T11:16:18.489Z,28.6
2023-03-30T11:17:20.522Z,28.6
2023-03-30T11:18:22.448Z,28.5
2023-03-30T11:19:24.211Z,28.5
2023-03-30T11:20:26.272Z,28.5
2023-03-30T11:21:30.977Z,28.5
2023-03-30T11:22:33.600Z,28.5
2023-03-30T11:23:35.394Z,28.6
2023-03-30T11:24:37.295Z,28.6
2023-03-30T11:25:39.085Z,28.6
2023-03-30T11:26:40.997Z,28.5
2023-03-30T11:27:43.091Z,28.5
2023-03-30T11:28:44.742Z,28.5
2023-03-30T11:29:46.611Z,28.5
2023-03-30T11:30:48.414Z,28.5
2023-03-30T11:31:50.512Z,28.6
2023-03-30T11:32:52.379Z,28.6
2023-03-30T11:33:54.395Z,28.6
2023-03-30T11:34:56.093Z,28.6
2023-03-30T11:35:58.074Z,28.5
2023-03-30T11:37:00.191Z,28.6
2023-03-30T11:38:02.118Z,28.6
2023-03-30T11:39:03.965Z,28.6
2023-03-30T11:40:05.716Z,28.6
2023-03-30T11:41:07.556Z,28.6
2023-03-30T11:42:09.387Z,28.6
2023-03-30T11:43:11.312Z,28.5
2023-03-30T11:44:13.217Z,28.5
2023-03-30T11:45:15.111Z,28.5
2023-03-30T11:46:17.033Z,28.5
2023-03-30T11:47:19.112Z,28.5
2023-03-30T11:48:20.824Z,28.5
2023-03-30T11:49:22.563Z,28.5
2023-03-30T11:50:24.353Z,28.6
2023-03-30T11:51:26.151Z,28.6
2023-03-30T11:52:28.072Z,28.5
2023-03-30T11:53:29.958Z,28.5
2023-03-30T11:54:31.681Z,28.5
2023-03-30T11:55:33.647Z,28.5
2023-03-30T11:56:35.419Z,28.5
2023-03-30T11:57:37.220Z,28.5
2023-03-30T11:58:39.120Z,28.6
2023-03-30T11:59:40.862Z,28.6
2023-03-30T12:00:47.521Z,28.6
2023-03-30T12:01:49.450Z,28.6
2023-03-30T12:02:51.254Z,28.6
2023-03-30T12:03:53.885Z,28.6
2023-03-30T12:04:56.580Z,28.6
2023-03-30T12:05:58.874Z,28.6
2023-03-30T12:07:00.675Z,28.6
2023-03-30T12:08:02.548Z,28.6
2023-03-30T12:09:04.444Z,28.6
2023-03-30T12:10:08.224Z,28.6
2023-03-30T12:11:10.236Z,28.6
2023-03-30T12:12:12.270Z,28.6
2023-03-30T12:13:13.956Z,28.6
2023-03-30T12:14:15.845Z,28.6
2023-03-30T12:15:17.729Z,28.6
2023-03-30T12:16:19.669Z,28.5
2023-03-30T12:17:21.836Z,28.5
2023-03-30T12:18:23.684Z,28.4
2023-03-30T12:19:25.598Z,28.4
2023-03-30T12:20:27.392Z,28.4
2023-03-30T12:21:29.235Z,28.4
2023-03-30T12:22:31.075Z,28.4
2023-03-30T12:23:32.971Z,28.5
2023-03-30T12:24:34.786Z,28.4
2023-03-30T12:25:36.625Z,28.4
2023-03-30T12:26:38.457Z,28.5
2023-03-30T12:27:40.365Z,28.5
2023-03-30T12:28:58.261Z,28.5
2023-03-30T12:31:05.156Z,28.5
2023-03-30T12:32:07.254Z,28.5
2023-03-30T12:33:09.575Z,28.5
2023-03-30T12:34:11.811Z,28.5
2023-03-30T12:35:13.560Z,28.5
2023-03-30T12:36:15.491Z,28.5
2023-03-30T12:37:17.400Z,28.5
2023-03-30T12:38:21.347Z,28.5
2023-03-30T12:39:23.925Z,28.5
2023-03-30T12:40:25.784Z,28.4
2023-03-30T12:41:27.669Z,28.4
2023-03-30T12:42:29.515Z,28.4
2023-03-30T12:43:31.427Z,28.4
2023-03-30T12:44:33.293Z,28.4
2023-03-30T12:45:35.179Z,28.4
2023-03-30T12:46:37.207Z,28.4
2023-03-30T12:47:39.760Z,28.4
2023-03-30T12:48:41.717Z,28.4
2023-03-30T12:49:43.567Z,28.5
2023-03-30T12:50:45.307Z,28.4
2023-03-30T12:51:47.057Z,28.4
2023-03-30T12:52:49.294Z,28.4
2023-03-30T12:53:52.050Z,28.3
2023-03-30T12:54:53.950Z,28.3
2023-03-30T12:55:55.908Z,28.3
2023-03-30T12:56:57.752Z,28.2
2023-03-30T12:57:59.866Z,28.2
2023-03-30T12:59:01.747Z,28.1
2023-03-30T13:00:03.557Z,28.1
2023-03-30T13:01:05.442Z,28.1
2023-03-30T13:02:07.391Z,28.1
2023-03-30T13:03:09.366Z,28.1
2023-03-30T13:04:11.506Z,28.2
2023-03-30T13:05:13.670Z,28.2
2023-03-30T13:06:15.402Z,28.2
2023-03-30T13:07:17.361Z,28.2
2023-03-30T13:08:19.279Z,28.2
2023-03-30T13:09:21.165Z,28.2
2023-03-30T13:10:23.143Z,28.2
2023-03-30T13:11:24.972Z,28.1
2023-03-30T13:12:26.746Z,28.1
2023-03-30T13:13:28.763Z,28.1
2023-03-30T13:14:30.532Z,28
2023-03-30T13:15:32.172Z,28
2023-03-30T13:16:34.068Z,28
2023-03-30T13:17:36.054Z,28
2023-03-30T13:18:37.926Z,28
2023-03-30T13:19:39.755Z,28
2023-03-30T13:20:41.631Z,28
2023-03-30T13:21:43.445Z,28
2023-03-30T13:22:45.221Z,27.9
2023-03-30T13:23:46.900Z,27.8
2023-03-30T13:24:48.829Z,27.8
2023-03-30T13:25:50.852Z,27.8
2023-03-30T13:26:52.745Z,27.7
2023-03-30T13:27:54.479Z,27.7
2023-03-30T13:28:56.333Z,27.7
2023-03-30T13:29:58.348Z,27.7
2023-03-30T13:31:00.369Z,27.8
2023-03-30T13:32:02.414Z,27.8
2023-03-30T13:33:04.602Z,27.8
2023-03-30T13:34:06.800Z,27.7
2023-03-30T13:35:08.703Z,27.7
2023-03-30T13:36:10.611Z,27.7
2023-03-30T13:37:12.643Z,27.6
2023-03-30T13:38:14.506Z,27.7
2023-03-30T13:39:16.347Z,27.6
2023-03-30T13:40:27.560Z,27.6
2023-03-30T13:42:06.183Z,27.6
2023-03-30T13:43:07.986Z,27.7
2023-03-30T13:44:09.831Z,27.7
2023-03-30T13:45:11.668Z,27.8
2023-03-30T13:46:16.734Z,27.8
2023-03-30T13:47:20.252Z,27.8
2023-03-30T13:48:22.100Z,27.7
2023-03-30T13:49:24.417Z,27.7
2023-03-30T13:50:26.581Z,27.7
2023-03-30T13:51:28.437Z,27.7
2023-03-30T13:52:30.262Z,27.7
2023-03-30T13:53:31.933Z,27.7
2023-03-30T13:54:33.801Z,27.6
2023-03-30T13:55:35.834Z,27.6
2023-03-30T13:56:37.669Z,27.6
2023-03-30T13:57:39.645Z,27.6